sensor_id;sensor_type;location;lat;lon;timestamp;pressure;altitude;pressure_sealevel;temperature
79632;BMP280;69108;41.120;16.874;2023-11-19T00:00:19;102281.16;;;15.19
79632;BMP280;69108;41.120;16.874;2023-11-19T00:02:46;102293.50;;;15.24
79632;BMP280;69108;41.120;16.874;2023-11-19T00:05:14;102289.28;;;15.23
79632;BMP280;69108;41.120;16.874;2023-11-19T00:07:41;102278.03;;;15.21
79632;BMP280;69108;41.120;16.874;2023-11-19T00:10:10;102286.59;;;15.19
79632;BMP280;69108;41.120;16.874;2023-11-19T00:12:39;102270.31;;;15.16
79632;BMP280;69108;41.120;16.874;2023-11-19T00:15:06;102272.28;;;15.15
79632;BMP280;69108;41.120;16.874;2023-11-19T00:17:40;102285.81;;;15.19
79632;BMP280;69108;41.120;16.874;2023-11-19T00:20:10;102277.34;;;15.13
79632;BMP280;69108;41.120;16.874;2023-11-19T00:22:41;102276.53;;;15.16
79632;BMP280;69108;41.120;16.874;2023-11-19T00:25:09;102274.16;;;15.18
79632;BMP280;69108;41.120;16.874;2023-11-19T00:27:37;102275.75;;;15.16
79632;BMP280;69108;41.120;16.874;2023-11-19T00:30:07;102279.59;;;15.18
79632;BMP280;69108;41.120;16.874;2023-11-19T00:32:34;102281.16;;;15.19
79632;BMP280;69108;41.120;16.874;2023-11-19T00:35:04;102276.88;;;15.18
79632;BMP280;69108;41.120;16.874;2023-11-19T00:37:35;102275.00;;;15.15
79632;BMP280;69108;41.120;16.874;2023-11-19T00:40:02;102282.75;;;15.17
79632;BMP280;69108;41.120;16.874;2023-11-19T00:42:33;102283.53;;;15.17
79632;BMP280;69108;41.120;16.874;2023-11-19T00:45:00;102288.59;;;15.15
79632;BMP280;69108;41.120;16.874;2023-11-19T00:47:27;102292.53;;;15.14
79632;BMP280;69108;41.120;16.874;2023-11-19T00:49:58;102290.19;;;15.13
79632;BMP280;69108;41.120;16.874;2023-11-19T00:52:27;102293.69;;;15.13
79632;BMP280;69108;41.120;16.874;2023-11-19T00:54:56;102295.63;;;15.13
79632;BMP280;69108;41.120;16.874;2023-11-19T00:57:23;102299.50;;;15.15
79632;BMP280;69108;41.120;16.874;2023-11-19T00:59:55;102306.91;;;15.15
79632;BMP280;69108;41.120;16.874;2023-11-19T01:02:25;102308.84;;;15.14
79632;BMP280;69108;41.120;16.874;2023-11-19T01:04:53;102305.34;;;15.14
79632;BMP280;69108;41.120;16.874;2023-11-19T01:07:22;102296.03;;;15.15
79632;BMP280;69108;41.120;16.874;2023-11-19T01:09:56;102304.22;;;15.11
79632;BMP280;69108;41.120;16.874;2023-11-19T01:12:26;102311.59;;;15.11
79632;BMP280;69108;41.120;16.874;2023-11-19T01:14:53;102291.06;;;15.06
79632;BMP280;69108;41.120;16.874;2023-11-19T01:17:22;102288.34;;;15.06
79632;BMP280;69108;41.120;16.874;2023-11-19T01:19:49;102295.72;;;15.09
79632;BMP280;69108;41.120;16.874;2023-11-19T01:22:19;102286.81;;;15.05
79632;BMP280;69108;41.120;16.874;2023-11-19T01:24:53;102285.38;;;14.97
79632;BMP280;69108;41.120;16.874;2023-11-19T01:27:20;102290.75;;;15.01
79632;BMP280;69108;41.120;16.874;2023-11-19T01:29:48;102296.53;;;15.06
79632;BMP280;69108;41.120;16.874;2023-11-19T01:32:17;102289.88;;;15.07
79632;BMP280;69108;41.120;16.874;2023-11-19T01:34:44;102279.47;;;15.02
79632;BMP280;69108;41.120;16.874;2023-11-19T01:37:14;102279.84;;;15.04
79632;BMP280;69108;41.120;16.874;2023-11-19T01:39:43;102272.47;;;15.01
79632;BMP280;69108;41.120;16.874;2023-11-19T01:42:14;102274.03;;;15.02
79632;BMP280;69108;41.120;16.874;2023-11-19T01:44:42;102272.09;;;15.03
79632;BMP280;69108;41.120;16.874;2023-11-19T01:47:14;102260.06;;;15.00
79632;BMP280;69108;41.120;16.874;2023-11-19T01:49:47;102257.34;;;15.00
79632;BMP280;69108;41.120;16.874;2023-11-19T01:52:14;102255.00;;;14.99
79632;BMP280;69108;41.120;16.874;2023-11-19T01:54:41;102242.72;;;14.87
79632;BMP280;69108;41.120;16.874;2023-11-19T01:57:09;102264.00;;;14.96
79632;BMP280;69108;41.120;16.874;2023-11-19T01:59:37;102272.94;;;14.96
79632;BMP280;69108;41.120;16.874;2023-11-19T02:02:06;102279.63;;;14.92
79632;BMP280;69108;41.120;16.874;2023-11-19T02:04:33;102267.97;;;14.91
79632;BMP280;69108;41.120;16.874;2023-11-19T02:07:01;102282.66;;;14.97
79632;BMP280;69108;41.120;16.874;2023-11-19T02:09:29;102282.28;;;14.95
79632;BMP280;69108;41.120;16.874;2023-11-19T02:11:57;102265.97;;;14.95
79632;BMP280;69108;41.120;16.874;2023-11-19T02:14:25;102269.09;;;14.94
79632;BMP280;69108;41.120;16.874;2023-11-19T02:16:56;102271.84;;;14.90
79632;BMP280;69108;41.120;16.874;2023-11-19T02:19:24;102264.50;;;14.87
79632;BMP280;69108;41.120;16.874;2023-11-19T02:21:51;102265.59;;;14.93
79632;BMP280;69108;41.120;16.874;2023-11-19T02:24:20;102261.38;;;14.92
79632;BMP280;69108;41.120;16.874;2023-11-19T02:26:57;102258.66;;;14.92
79632;BMP280;69108;41.120;16.874;2023-11-19T02:29:30;102259.06;;;14.87
79632;BMP280;69108;41.120;16.874;2023-11-19T02:32:02;102266.50;;;14.87
79632;BMP280;69108;41.120;16.874;2023-11-19T02:34:29;102271.28;;;14.76
79632;BMP280;69108;41.120;16.874;2023-11-19T02:36:56;102281.09;;;14.70
79632;BMP280;69108;41.120;16.874;2023-11-19T02:39:24;102285.13;;;14.58
79632;BMP280;69108;41.120;16.874;2023-11-19T02:41:51;102276.22;;;14.54
79632;BMP280;69108;41.120;16.874;2023-11-19T02:44:18;102269.66;;;14.52
79632;BMP280;69108;41.120;16.874;2023-11-19T02:46:47;102280.50;;;14.55
79632;BMP280;69108;41.120;16.874;2023-11-19T02:49:16;102278.22;;;14.50
79632;BMP280;69108;41.120;16.874;2023-11-19T02:51:42;102281.88;;;14.37
79632;BMP280;69108;41.120;16.874;2023-11-19T02:54:09;102274.22;;;14.24
79632;BMP280;69108;41.120;16.874;2023-11-19T02:56:42;102271.19;;;14.19
79632;BMP280;69108;41.120;16.874;2023-11-19T02:59:14;102270.06;;;14.16
79632;BMP280;69108;41.120;16.874;2023-11-19T03:01:57;102274.34;;;14.14
79632;BMP280;69108;41.120;16.874;2023-11-19T03:04:25;102279.78;;;14.14
79632;BMP280;69108;41.120;16.874;2023-11-19T03:06:52;102280.63;;;14.11
79632;BMP280;69108;41.120;16.874;2023-11-19T03:09:20;102274.81;;;14.05
79632;BMP280;69108;41.120;16.874;2023-11-19T03:11:48;102273.72;;;13.99
79632;BMP280;69108;41.120;16.874;2023-11-19T03:14:15;102273.38;;;13.97
79632;BMP280;69108;41.120;16.874;2023-11-19T03:16:51;102280.38;;;13.95
79632;BMP280;69108;41.120;16.874;2023-11-19T03:19:20;102278.03;;;13.93
79632;BMP280;69108;41.120;16.874;2023-11-19T03:21:47;102278.09;;;13.90
79632;BMP280;69108;41.120;16.874;2023-11-19T03:24:15;102286.28;;;13.86
79632;BMP280;69108;41.120;16.874;2023-11-19T03:26:42;102282.03;;;13.82
79632;BMP280;69108;41.120;16.874;2023-11-19T03:29:10;102280.53;;;13.81
79632;BMP280;69108;41.120;16.874;2023-11-19T03:31:41;102283.63;;;13.79
79632;BMP280;69108;41.120;16.874;2023-11-19T03:34:10;102273.53;;;13.76
79632;BMP280;69108;41.120;16.874;2023-11-19T03:36:39;102279.75;;;13.77
79632;BMP280;69108;41.120;16.874;2023-11-19T03:39:06;102282.47;;;13.77
79632;BMP280;69108;41.120;16.874;2023-11-19T03:41:34;102287.53;;;13.75
79632;BMP280;69108;41.120;16.874;2023-11-19T03:44:03;102290.66;;;13.73
79632;BMP280;69108;41.120;16.874;2023-11-19T03:46:32;102285.22;;;13.73
79632;BMP280;69108;41.120;16.874;2023-11-19T03:49:01;102279.84;;;13.70
79632;BMP280;69108;41.120;16.874;2023-11-19T03:51:30;102282.91;;;13.72
79632;BMP280;69108;41.120;16.874;2023-11-19T03:53:59;102273.66;;;13.66
79632;BMP280;69108;41.120;16.874;2023-11-19T03:56:35;102282.97;;;13.65
79632;BMP280;69108;41.120;16.874;2023-11-19T03:59:02;102274.88;;;13.58
79632;BMP280;69108;41.120;16.874;2023-11-19T04:01:30;102281.91;;;13.55
79632;BMP280;69108;41.120;16.874;2023-11-19T04:03:57;102293.88;;;13.58
79632;BMP280;69108;41.120;16.874;2023-11-19T04:06:25;102300.13;;;13.55
79632;BMP280;69108;41.120;16.874;2023-11-19T04:08:52;102296.69;;;13.47
79632;BMP280;69108;41.120;16.874;2023-11-19T04:11:21;102293.56;;;13.45
79632;BMP280;69108;41.120;16.874;2023-11-19T04:13:49;102290.94;;;13.42
79632;BMP280;69108;41.120;16.874;2023-11-19T04:16:16;102282.44;;;13.36
79632;BMP280;69108;41.120;16.874;2023-11-19T04:18:43;102284.78;;;13.30
79632;BMP280;69108;41.120;16.874;2023-11-19T04:21:13;102277.38;;;13.34
79632;BMP280;69108;41.120;16.874;2023-11-19T04:23:41;102279.31;;;13.34
79632;BMP280;69108;41.120;16.874;2023-11-19T04:26:08;102268.47;;;13.34
79632;BMP280;69108;41.120;16.874;2023-11-19T04:28:36;102255.69;;;13.31
79632;BMP280;69108;41.120;16.874;2023-11-19T04:31:04;102251.84;;;13.28
79632;BMP280;69108;41.120;16.874;2023-11-19T04:33:35;102244.47;;;13.25
79632;BMP280;69108;41.120;16.874;2023-11-19T04:36:05;102244.91;;;13.24
79632;BMP280;69108;41.120;16.874;2023-11-19T04:38:42;102247.25;;;13.18
79632;BMP280;69108;41.120;16.874;2023-11-19T04:41:09;102249.19;;;13.18
79632;BMP280;69108;41.120;16.874;2023-11-19T04:43:39;102254.66;;;13.14
79632;BMP280;69108;41.120;16.874;2023-11-19T04:46:07;102260.09;;;13.11
79632;BMP280;69108;41.120;16.874;2023-11-19T04:48:34;102252.75;;;13.08
79632;BMP280;69108;41.120;16.874;2023-11-19T04:51:05;102251.66;;;13.02
79632;BMP280;69108;41.120;16.874;2023-11-19T04:53:32;102264.81;;;13.03
79632;BMP280;69108;41.120;16.874;2023-11-19T04:55:59;102244.28;;;12.99
79632;BMP280;69108;41.120;16.874;2023-11-19T04:58:28;102251.66;;;12.95
79632;BMP280;69108;41.120;16.874;2023-11-19T05:00:57;102263.28;;;12.99
79632;BMP280;69108;41.120;16.874;2023-11-19T05:03:24;102248.19;;;12.94
79632;BMP280;69108;41.120;16.874;2023-11-19T05:05:51;102228.03;;;12.92
79632;BMP280;69108;41.120;16.874;2023-11-19T05:08:19;102236.59;;;12.90
79632;BMP280;69108;41.120;16.874;2023-11-19T05:10:46;102234.66;;;12.87
79632;BMP280;69108;41.120;16.874;2023-11-19T05:13:12;102247.09;;;12.85
79632;BMP280;69108;41.120;16.874;2023-11-19T05:15:40;102237.41;;;12.84
79632;BMP280;69108;41.120;16.874;2023-11-19T05:18:09;102247.09;;;12.85
79632;BMP280;69108;41.120;16.874;2023-11-19T05:20:36;102249.81;;;12.81
79632;BMP280;69108;41.120;16.874;2023-11-19T05:23:03;102255.22;;;12.81
79632;BMP280;69108;41.120;16.874;2023-11-19T05:25:32;102258.75;;;12.75
79632;BMP280;69108;41.120;16.874;2023-11-19T05:28:00;102270.38;;;12.75
79632;BMP280;69108;41.120;16.874;2023-11-19T05:30:28;102267.28;;;12.73
79632;BMP280;69108;41.120;16.874;2023-11-19T05:32:55;102263.00;;;12.72
79632;BMP280;69108;41.120;16.874;2023-11-19T05:35:23;102270.38;;;12.72
79632;BMP280;69108;41.120;16.874;2023-11-19T05:37:50;102255.66;;;12.66
79632;BMP280;69108;41.120;16.874;2023-11-19T05:40:17;102263.78;;;12.66
79632;BMP280;69108;41.120;16.874;2023-11-19T05:42:45;102273.50;;;12.63
79632;BMP280;69108;41.120;16.874;2023-11-19T05:45:12;102278.53;;;12.61
79632;BMP280;69108;41.120;16.874;2023-11-19T05:47:39;102283.59;;;12.59
79632;BMP280;69108;41.120;16.874;2023-11-19T05:50:07;102272.00;;;12.55
79632;BMP280;69108;41.120;16.874;2023-11-19T05:52:35;102263.09;;;12.55
79632;BMP280;69108;41.120;16.874;2023-11-19T05:55:03;102258.84;;;12.54
79632;BMP280;69108;41.120;16.874;2023-11-19T05:57:34;102258.84;;;12.50
79632;BMP280;69108;41.120;16.874;2023-11-19T06:00:01;102258.06;;;12.46
79632;BMP280;69108;41.120;16.874;2023-11-19T06:02:29;102253.44;;;12.43
79632;BMP280;69108;41.120;16.874;2023-11-19T06:04:56;102256.94;;;12.40
79632;BMP280;69108;41.120;16.874;2023-11-19T06:07:23;102259.25;;;12.38
79632;BMP280;69108;41.120;16.874;2023-11-19T06:09:51;102250.00;;;12.35
79632;BMP280;69108;41.120;16.874;2023-11-19T06:12:18;102255.78;;;12.34
79632;BMP280;69108;41.120;16.874;2023-11-19T06:14:45;102261.19;;;12.34
79632;BMP280;69108;41.120;16.874;2023-11-19T06:17:12;102260.84;;;12.35
79632;BMP280;69108;41.120;16.874;2023-11-19T06:19:39;102256.19;;;12.36
79632;BMP280;69108;41.120;16.874;2023-11-19T06:22:06;102257.72;;;12.37
79632;BMP280;69108;41.120;16.874;2023-11-19T06:24:33;102255.78;;;12.41
79632;BMP280;69108;41.120;16.874;2023-11-19T06:27:01;102260.03;;;12.38
79632;BMP280;69108;41.120;16.874;2023-11-19T06:29:28;102252.28;;;12.40
79632;BMP280;69108;41.120;16.874;2023-11-19T06:31:55;102256.94;;;12.43
79632;BMP280;69108;41.120;16.874;2023-11-19T06:34:22;102260.78;;;12.46
79632;BMP280;69108;41.120;16.874;2023-11-19T06:36:49;102252.28;;;12.48
79632;BMP280;69108;41.120;16.874;2023-11-19T06:39:15;102262.72;;;12.49
79632;BMP280;69108;41.120;16.874;2023-11-19T06:41:45;102260.38;;;12.51
79632;BMP280;69108;41.120;16.874;2023-11-19T06:44:13;102257.28;;;12.53
79632;BMP280;69108;41.120;16.874;2023-11-19T06:46:40;102253.03;;;12.55
79632;BMP280;69108;41.120;16.874;2023-11-19T06:49:07;102255.31;;;12.57
79632;BMP280;69108;41.120;16.874;2023-11-19T06:51:34;102250.66;;;12.61
79632;BMP280;69108;41.120;16.874;2023-11-19T06:54:01;102247.19;;;12.60
79632;BMP280;69108;41.120;16.874;2023-11-19T06:56:28;102258.81;;;12.64
79632;BMP280;69108;41.120;16.874;2023-11-19T06:58:55;102259.53;;;12.68
79632;BMP280;69108;41.120;16.874;2023-11-19T07:01:23;102262.66;;;12.70
79632;BMP280;69108;41.120;16.874;2023-11-19T07:03:50;102261.09;;;12.69
79632;BMP280;69108;41.120;16.874;2023-11-19T07:06:17;102263.38;;;12.74
79632;BMP280;69108;41.120;16.874;2023-11-19T07:08:44;102250.63;;;12.78
79632;BMP280;69108;41.120;16.874;2023-11-19T07:11:12;102252.53;;;12.81
79632;BMP280;69108;41.120;16.874;2023-11-19T07:13:39;102243.59;;;12.84
79632;BMP280;69108;41.120;16.874;2023-11-19T07:16:07;102246.31;;;12.84
79632;BMP280;69108;41.120;16.874;2023-11-19T07:18:36;102240.13;;;12.77
79632;BMP280;69108;41.120;16.874;2023-11-19T07:21:04;102239.38;;;12.76
79632;BMP280;69108;41.120;16.874;2023-11-19T07:23:32;102241.31;;;12.76
79632;BMP280;69108;41.120;16.874;2023-11-19T07:25:59;102245.16;;;12.82
79632;BMP280;69108;41.120;16.874;2023-11-19T07:28:27;102247.44;;;12.87
79632;BMP280;69108;41.120;16.874;2023-11-19T07:30:54;102243.94;;;12.93
79632;BMP280;69108;41.120;16.874;2023-11-19T07:33:22;102241.56;;;12.99
79632;BMP280;69108;41.120;16.874;2023-11-19T07:35:50;102243.50;;;13.02
79632;BMP280;69108;41.120;16.874;2023-11-19T07:38:17;102239.97;;;13.08
79632;BMP280;69108;41.120;16.874;2023-11-19T07:40:44;102239.94;;;13.12
79632;BMP280;69108;41.120;16.874;2023-11-19T07:43:11;102239.16;;;13.15
79632;BMP280;69108;41.120;16.874;2023-11-19T07:45:38;102233.69;;;13.18
79632;BMP280;69108;41.120;16.874;2023-11-19T07:48:05;102238.72;;;13.23
79632;BMP280;69108;41.120;16.874;2023-11-19T07:50:32;102249.50;;;13.30
79632;BMP280;69108;41.120;16.874;2023-11-19T07:53:00;102261.06;;;13.38
79632;BMP280;69108;41.120;16.874;2023-11-19T07:55:27;102264.50;;;13.46
79632;BMP280;69108;41.120;16.874;2023-11-19T07:57:54;102276.47;;;13.52
79632;BMP280;69108;41.120;16.874;2023-11-19T08:00:21;102274.47;;;13.59
79632;BMP280;69108;41.120;16.874;2023-11-19T08:02:48;102279.09;;;13.66
79632;BMP280;69108;41.120;16.874;2023-11-19T08:05:15;102285.25;;;13.70
79632;BMP280;69108;41.120;16.874;2023-11-19T08:07:42;102285.22;;;13.73
79632;BMP280;69108;41.120;16.874;2023-11-19T08:10:10;102275.09;;;13.77
79632;BMP280;69108;41.120;16.874;2023-11-19T08:12:37;102270.41;;;13.81
79632;BMP280;69108;41.120;16.874;2023-11-19T08:15:05;102262.97;;;13.89
79632;BMP280;69108;41.120;16.874;2023-11-19T08:17:32;102252.88;;;13.93
79632;BMP280;69108;41.120;16.874;2023-11-19T08:19:59;102261.28;;;14.02
79632;BMP280;69108;41.120;16.874;2023-11-19T08:22:26;102259.66;;;14.08
79632;BMP280;69108;41.120;16.874;2023-11-19T08:24:53;102254.56;;;14.13
79632;BMP280;69108;41.120;16.874;2023-11-19T08:27:21;102250.63;;;14.21
79632;BMP280;69108;41.120;16.874;2023-11-19T08:29:53;102251.31;;;14.29
79632;BMP280;69108;41.120;16.874;2023-11-19T08:32:21;102254.34;;;14.35
79632;BMP280;69108;41.120;16.874;2023-11-19T08:34:48;102249.63;;;14.39
79632;BMP280;69108;41.120;16.874;2023-11-19T08:37:14;102247.28;;;14.41
79632;BMP280;69108;41.120;16.874;2023-11-19T08:39:43;102240.22;;;14.47
79632;BMP280;69108;41.120;16.874;2023-11-19T08:42:12;102244.06;;;14.49
79632;BMP280;69108;41.120;16.874;2023-11-19T08:44:40;102242.47;;;14.52
79632;BMP280;69108;41.120;16.874;2023-11-19T08:47:09;102244.75;;;14.57
79632;BMP280;69108;41.120;16.874;2023-11-19T08:49:36;102256.25;;;14.68
79632;BMP280;69108;41.120;16.874;2023-11-19T08:52:04;102250.28;;;14.76
79632;BMP280;69108;41.120;16.874;2023-11-19T08:54:32;102250.19;;;14.83
79632;BMP280;69108;41.120;16.874;2023-11-19T08:56:59;102250.91;;;14.87
79632;BMP280;69108;41.120;16.874;2023-11-19T08:59:28;102244.66;;;14.90
79632;BMP280;69108;41.120;16.874;2023-11-19T09:01:56;102248.47;;;14.96
79632;BMP280;69108;41.120;16.874;2023-11-19T09:04:23;102248.81;;;14.98
79632;BMP280;69108;41.120;16.874;2023-11-19T09:06:52;102248.69;;;15.05
79632;BMP280;69108;41.120;16.874;2023-11-19T09:09:20;102242.28;;;15.19
79632;BMP280;69108;41.120;16.874;2023-11-19T09:11:47;102257.97;;;15.35
79632;BMP280;69108;41.120;16.874;2023-11-19T09:14:13;102245.41;;;15.64
79632;BMP280;69108;41.120;16.874;2023-11-19T09:16:41;102244.91;;;16.11
79632;BMP280;69108;41.120;16.874;2023-11-19T09:19:10;102246.41;;;16.68
79632;BMP280;69108;41.120;16.874;2023-11-19T09:21:37;102246.78;;;17.18
79632;BMP280;69108;41.120;16.874;2023-11-19T09:24:04;102231.59;;;17.62
79632;BMP280;69108;41.120;16.874;2023-11-19T09:26:33;102228.13;;;18.02
79632;BMP280;69108;41.120;16.874;2023-11-19T09:28:59;102227.72;;;18.29
79632;BMP280;69108;41.120;16.874;2023-11-19T09:31:26;102226.06;;;18.57
79632;BMP280;69108;41.120;16.874;2023-11-19T09:33:53;102221.13;;;18.89
79632;BMP280;69108;41.120;16.874;2023-11-19T09:36:22;102229.31;;;19.02
79632;BMP280;69108;41.120;16.874;2023-11-19T09:38:49;102225.75;;;19.14
79632;BMP280;69108;41.120;16.874;2023-11-19T09:41:17;102230.59;;;19.10
79632;BMP280;69108;41.120;16.874;2023-11-19T09:43:45;102226.88;;;19.04
79632;BMP280;69108;41.120;16.874;2023-11-19T09:46:13;102231.28;;;19.01
79632;BMP280;69108;41.120;16.874;2023-11-19T09:48:40;102233.66;;;18.99
79632;BMP280;69108;41.120;16.874;2023-11-19T09:51:08;102222.19;;;18.92
79632;BMP280;69108;41.120;16.874;2023-11-19T09:53:37;102226.69;;;18.98
79632;BMP280;69108;41.120;16.874;2023-11-19T09:56:05;102227.31;;;19.02
79632;BMP280;69108;41.120;16.874;2023-11-19T09:58:33;102222.16;;;19.04
79632;BMP280;69108;41.120;16.874;2023-11-19T10:01:00;102222.50;;;19.06
79632;BMP280;69108;41.120;16.874;2023-11-19T10:03:32;102221.34;;;19.16
79632;BMP280;69108;41.120;16.874;2023-11-19T10:06:00;102217.50;;;19.26
79632;BMP280;69108;41.120;16.874;2023-11-19T10:08:27;102219.97;;;19.33
79632;BMP280;69108;41.120;16.874;2023-11-19T10:10:56;102224.31;;;19.43
79632;BMP280;69108;41.120;16.874;2023-11-19T10:13:26;102229.69;;;19.47
79632;BMP280;69108;41.120;16.874;2023-11-19T10:15:53;102225.47;;;19.33
79632;BMP280;69108;41.120;16.874;2023-11-19T10:18:24;102221.31;;;19.07
79632;BMP280;69108;41.120;16.874;2023-11-19T10:20:51;102213.81;;;18.61
79632;BMP280;69108;41.120;16.874;2023-11-19T10:23:18;102210.84;;;18.30
79632;BMP280;69108;41.120;16.874;2023-11-19T10:25:45;102201.63;;;18.12
79632;BMP280;69108;41.120;16.874;2023-11-19T10:28:15;102186.13;;;17.96
79632;BMP280;69108;41.120;16.874;2023-11-19T10:30:42;102195.03;;;17.84
79632;BMP280;69108;41.120;16.874;2023-11-19T10:33:10;102194.66;;;17.70
79632;BMP280;69108;41.120;16.874;2023-11-19T10:35:53;102192.22;;;17.59
79632;BMP280;69108;41.120;16.874;2023-11-19T10:38:20;102192.28;;;17.43
79632;BMP280;69108;41.120;16.874;2023-11-19T10:40:47;102187.44;;;17.35
79632;BMP280;69108;41.120;16.874;2023-11-19T10:43:16;102184.72;;;17.35
79632;BMP280;69108;41.120;16.874;2023-11-19T10:45:43;102185.56;;;17.32
79632;BMP280;69108;41.120;16.874;2023-11-19T10:48:10;102180.53;;;17.30
79632;BMP280;69108;41.120;16.874;2023-11-19T10:50:40;102184.13;;;17.27
79632;BMP280;69108;41.120;16.874;2023-11-19T10:53:09;102177.91;;;17.27
79632;BMP280;69108;41.120;16.874;2023-11-19T10:55:37;102173.75;;;17.22
79632;BMP280;69108;41.120;16.874;2023-11-19T10:58:06;102178.25;;;17.12
79632;BMP280;69108;41.120;16.874;2023-11-19T11:00:38;102167.78;;;17.11
79632;BMP280;69108;41.120;16.874;2023-11-19T11:03:11;102163.84;;;17.12
79632;BMP280;69108;41.120;16.874;2023-11-19T11:05:38;102167.25;;;17.16
79632;BMP280;69108;41.120;16.874;2023-11-19T11:08:06;102161.03;;;17.15
79632;BMP280;69108;41.120;16.874;2023-11-19T11:10:36;102156.28;;;17.19
79632;BMP280;69108;41.120;16.874;2023-11-19T11:13:05;102152.28;;;17.20
79632;BMP280;69108;41.120;16.874;2023-11-19T11:15:34;102158.88;;;17.23
79632;BMP280;69108;41.120;16.874;2023-11-19T11:18:02;102153.00;;;17.25
79632;BMP280;69108;41.120;16.874;2023-11-19T11:20:31;102148.06;;;17.19
79632;BMP280;69108;41.120;16.874;2023-11-19T11:23:46;102143.91;;;17.15
79632;BMP280;69108;41.120;16.874;2023-11-19T11:26:43;102131.94;;;17.25
79632;BMP280;69108;41.120;16.874;2023-11-19T11:29:21;102127.56;;;17.28
79632;BMP280;69108;41.120;16.874;2023-11-19T11:31:59;102119.59;;;17.33
79632;BMP280;69108;41.120;16.874;2023-11-19T11:34:53;102119.38;;;17.40
79632;BMP280;69108;41.120;16.874;2023-11-19T11:37:28;102112.19;;;17.46
79632;BMP280;69108;41.120;16.874;2023-11-19T11:40:03;102108.72;;;17.46
79632;BMP280;69108;41.120;16.874;2023-11-19T11:42:36;102110.13;;;17.50
79632;BMP280;69108;41.120;16.874;2023-11-19T11:45:05;102113.88;;;17.56
79632;BMP280;69108;41.120;16.874;2023-11-19T11:48:13;102107.31;;;17.54
79632;BMP280;69108;41.120;16.874;2023-11-19T11:50:55;102111.56;;;17.55
79632;BMP280;69108;41.120;16.874;2023-11-19T11:53:23;102103.34;;;17.55
79632;BMP280;69108;41.120;16.874;2023-11-19T11:55:55;102109.59;;;17.55
79632;BMP280;69108;41.120;16.874;2023-11-19T11:58:26;102100.13;;;17.60
79632;BMP280;69108;41.120;16.874;2023-11-19T12:00:57;102095.53;;;17.57
79632;BMP280;69108;41.120;16.874;2023-11-19T12:03:27;102094.66;;;17.60
79632;BMP280;69108;41.120;16.874;2023-11-19T12:05:54;102093.13;;;17.59
79632;BMP280;69108;41.120;16.874;2023-11-19T12:08:25;102080.44;;;17.65
79632;BMP280;69108;41.120;16.874;2023-11-19T12:10:54;102084.28;;;17.67
79632;BMP280;69108;41.120;16.874;2023-11-19T12:13:23;102083.84;;;17.69
79632;BMP280;69108;41.120;16.874;2023-11-19T12:16:08;102085.91;;;17.65
79632;BMP280;69108;41.120;16.874;2023-11-19T12:18:39;102087.41;;;17.66
79632;BMP280;69108;41.120;16.874;2023-11-19T12:21:07;102075.66;;;17.69
79632;BMP280;69108;41.120;16.874;2023-11-19T12:23:44;102079.22;;;17.66
79632;BMP280;69108;41.120;16.874;2023-11-19T12:26:21;102074.53;;;17.66
79632;BMP280;69108;41.120;16.874;2023-11-19T12:29:00;102076.50;;;17.66
79632;BMP280;69108;41.120;16.874;2023-11-19T12:31:29;102081.66;;;17.64
79632;BMP280;69108;41.120;16.874;2023-11-19T12:33:58;102080.53;;;17.61
79632;BMP280;69108;41.120;16.874;2023-11-19T12:36:25;102078.25;;;17.60
79632;BMP280;69108;41.120;16.874;2023-11-19T12:38:52;102077.81;;;17.61
79632;BMP280;69108;41.120;16.874;2023-11-19T12:41:19;102085.56;;;17.63
79632;BMP280;69108;41.120;16.874;2023-11-19T12:43:48;102082.50;;;17.61
79632;BMP280;69108;41.120;16.874;2023-11-19T12:46:19;102073.13;;;17.62
79632;BMP280;69108;41.120;16.874;2023-11-19T12:48:47;102068.44;;;17.62
79632;BMP280;69108;41.120;16.874;2023-11-19T12:51:16;102063.72;;;17.63
79632;BMP280;69108;41.120;16.874;2023-11-19T12:53:49;102060.97;;;17.63
79632;BMP280;69108;41.120;16.874;2023-11-19T12:56:19;102062.31;;;17.58
79632;BMP280;69108;41.120;16.874;2023-11-19T12:58:46;102065.88;;;17.55
79632;BMP280;69108;41.120;16.874;2023-11-19T13:01:16;102055.72;;;17.56
79632;BMP280;69108;41.120;16.874;2023-11-19T13:03:43;102052.69;;;17.54
79632;BMP280;69108;41.120;16.874;2023-11-19T13:06:12;102049.19;;;17.53
79632;BMP280;69108;41.120;16.874;2023-11-19T13:08:41;102047.41;;;17.47
79632;BMP280;69108;41.120;16.874;2023-11-19T13:11:11;102051.69;;;17.48
79632;BMP280;69108;41.120;16.874;2023-11-19T13:13:57;102050.13;;;17.47
79632;BMP280;69108;41.120;16.874;2023-11-19T13:16:24;102047.41;;;17.47
79632;BMP280;69108;41.120;16.874;2023-11-19T13:18:52;102055.06;;;17.39
79632;BMP280;69108;41.120;16.874;2023-11-19T13:21:19;102050.44;;;17.36
79632;BMP280;69108;41.120;16.874;2023-11-19T13:23:47;102048.91;;;17.35
79632;BMP280;69108;41.120;16.874;2023-11-19T13:26:14;102047.47;;;17.31
79632;BMP280;69108;41.120;16.874;2023-11-19T13:28:41;102049.91;;;17.29
79632;BMP280;69108;41.120;16.874;2023-11-19T13:31:08;102041.03;;;17.25
79632;BMP280;69108;41.120;16.874;2023-11-19T13:33:35;102041.44;;;17.23
79632;BMP280;69108;41.120;16.874;2023-11-19T13:36:03;102033.25;;;17.23
79632;BMP280;69108;41.120;16.874;2023-11-19T13:38:31;102036.34;;;17.25
79632;BMP280;69108;41.120;16.874;2023-11-19T13:41:00;102029.00;;;17.22
79632;BMP280;69108;41.120;16.874;2023-11-19T13:43:27;102029.91;;;17.19
79632;BMP280;69108;41.120;16.874;2023-11-19T13:45:54;102029.56;;;17.17
79632;BMP280;69108;41.120;16.874;2023-11-19T13:48:21;102026.06;;;17.16
79632;BMP280;69108;41.120;16.874;2023-11-19T13:50:48;102022.88;;;17.18
79632;BMP280;69108;41.120;16.874;2023-11-19T13:53:16;102030.66;;;17.19